sensor_id;sensor_type;location;lat;lon;timestamp;pressure;altitude;pressure_sealevel;temperature
40199;BMP280;25906;43.536;26.068;2022-09-03T00:02:00;98437.91;;;15.48
40199;BMP280;25906;43.536;26.068;2022-09-03T00:08:29;98458.19;;;15.71
40199;BMP280;25906;43.536;26.068;2022-09-03T00:11:19;98469.06;;;15.98
40199;BMP280;25906;43.536;26.068;2022-09-03T00:14:22;98457.88;;;16.07
40199;BMP280;25906;43.536;26.068;2022-09-03T00:17:13;98454.03;;;16.12
40199;BMP280;25906;43.536;26.068;2022-09-03T00:20:24;98453.97;;;16.26
40199;BMP280;25906;43.536;26.068;2022-09-03T00:23:21;98441.38;;;15.90
40199;BMP280;25906;43.536;26.068;2022-09-03T00:26:21;98432.53;;;15.63
40199;BMP280;25906;43.536;26.068;2022-09-03T00:29:15;98431.53;;;15.56
40199;BMP280;25906;43.536;26.068;2022-09-03T00:32:10;98434.28;;;15.43
40199;BMP280;25906;43.536;26.068;2022-09-03T00:35:02;98455.09;;;15.63
40199;BMP280;25906;43.536;26.068;2022-09-03T00:37:50;98450.66;;;15.43
40199;BMP280;25906;43.536;26.068;2022-09-03T00:56:00;98468.22;;;16.09
40199;BMP280;25906;43.536;26.068;2022-09-03T01:02:18;98462.88;;;16.26
40199;BMP280;25906;43.536;26.068;2022-09-03T01:11:23;98476.13;;;16.03
40199;BMP280;25906;43.536;26.068;2022-09-03T01:20:26;98476.91;;;15.77
40199;BMP280;25906;43.536;26.068;2022-09-03T01:35:22;98477.53;;;15.35
40199;BMP280;25906;43.536;26.068;2022-09-03T01:38:37;98478.03;;;15.32
40199;BMP280;25906;43.536;26.068;2022-09-03T01:41:53;98477.63;;;15.37
40199;BMP280;25906;43.536;26.068;2022-09-03T02:00:17;98471.66;;;15.27
40199;BMP280;25906;43.536;26.068;2022-09-03T02:03:08;98480.34;;;15.24
40199;BMP280;25906;43.536;26.068;2022-09-03T02:05:55;98480.03;;;15.18
40199;BMP280;25906;43.536;26.068;2022-09-03T02:08:40;98484.97;;;15.08
40199;BMP280;25906;43.536;26.068;2022-09-03T02:11:26;98486.41;;;15.22
40199;BMP280;25906;43.536;26.068;2022-09-03T02:14:13;98489.06;;;15.20
40199;BMP280;25906;43.536;26.068;2022-09-03T02:16:59;98488.13;;;15.16
40199;BMP280;25906;43.536;26.068;2022-09-03T02:19:46;98491.78;;;15.34
40199;BMP280;25906;43.536;26.068;2022-09-03T02:22:32;98482.28;;;15.35
40199;BMP280;25906;43.536;26.068;2022-09-03T02:25:19;98493.59;;;15.43
40199;BMP280;25906;43.536;26.068;2022-09-03T02:28:06;98496.91;;;15.41
40199;BMP280;25906;43.536;26.068;2022-09-03T02:30:53;98496.25;;;15.41
40199;BMP280;25906;43.536;26.068;2022-09-03T02:33:39;98493.91;;;15.22
40199;BMP280;25906;43.536;26.068;2022-09-03T02:36:31;98493.78;;;15.20
40199;BMP280;25906;43.536;26.068;2022-09-03T02:39:16;98496.00;;;15.23
40199;BMP280;25906;43.536;26.068;2022-09-03T02:42:02;98492.56;;;15.23
40199;BMP280;25906;43.536;26.068;2022-09-03T02:44:52;98495.41;;;15.11
40199;BMP280;25906;43.536;26.068;2022-09-03T02:47:41;98499.09;;;15.05
40199;BMP280;25906;43.536;26.068;2022-09-03T02:50:28;98493.31;;;14.99
40199;BMP280;25906;43.536;26.068;2022-09-03T02:53:14;98489.50;;;15.04
40199;BMP280;25906;43.536;26.068;2022-09-03T02:56:00;98493.16;;;15.08
40199;BMP280;25906;43.536;26.068;2022-09-03T02:58:46;98498.72;;;14.97
40199;BMP280;25906;43.536;26.068;2022-09-03T03:01:31;98495.06;;;14.92
40199;BMP280;25906;43.536;26.068;2022-09-03T03:04:17;98503.50;;;14.85
40199;BMP280;25906;43.536;26.068;2022-09-03T03:07:03;98502.22;;;14.86
40199;BMP280;25906;43.536;26.068;2022-09-03T03:09:48;98501.31;;;14.95
40199;BMP280;25906;43.536;26.068;2022-09-03T03:12:34;98500.88;;;14.73
40199;BMP280;25906;43.536;26.068;2022-09-03T03:15:19;98507.66;;;14.86
40199;BMP280;25906;43.536;26.068;2022-09-03T03:18:05;98511.91;;;14.89
40199;BMP280;25906;43.536;26.068;2022-09-03T03:20:51;98508.69;;;14.92
40199;BMP280;25906;43.536;26.068;2022-09-03T03:23:37;98512.22;;;14.95
40199;BMP280;25906;43.536;26.068;2022-09-03T03:26:23;98512.41;;;14.85
40199;BMP280;25906;43.536;26.068;2022-09-03T03:29:13;98508.00;;;14.92
40199;BMP280;25906;43.536;26.068;2022-09-03T03:31:59;98513.44;;;14.92
40199;BMP280;25906;43.536;26.068;2022-09-03T03:34:44;98508.28;;;14.98
40199;BMP280;25906;43.536;26.068;2022-09-03T03:37:31;98518.97;;;14.94
40199;BMP280;25906;43.536;26.068;2022-09-03T03:40:23;98525.34;;;14.98
40199;BMP280;25906;43.536;26.068;2022-09-03T03:43:15;98516.88;;;14.92
40199;BMP280;25906;43.536;26.068;2022-09-03T03:46:00;98518.34;;;14.82
40199;BMP280;25906;43.536;26.068;2022-09-03T03:48:47;98518.16;;;14.78
40199;BMP280;25906;43.536;26.068;2022-09-03T03:51:34;98511.53;;;14.69
40199;BMP280;25906;43.536;26.068;2022-09-03T03:54:19;98518.75;;;14.76
40199;BMP280;25906;43.536;26.068;2022-09-03T03:57:04;98522.13;;;14.64
40199;BMP280;25906;43.536;26.068;2022-09-03T03:59:50;98521.91;;;14.60
40199;BMP280;25906;43.536;26.068;2022-09-03T04:02:35;98526.34;;;14.66
40199;BMP280;25906;43.536;26.068;2022-09-03T04:05:21;98522.91;;;14.53
40199;BMP280;25906;43.536;26.068;2022-09-03T04:08:06;98522.59;;;14.60
40199;BMP280;25906;43.536;26.068;2022-09-03T04:10:52;98521.47;;;14.52
40199;BMP280;25906;43.536;26.068;2022-09-03T04:13:40;98534.38;;;14.51
40199;BMP280;25906;43.536;26.068;2022-09-03T04:16:26;98532.34;;;14.52
40199;BMP280;25906;43.536;26.068;2022-09-03T04:19:12;98538.41;;;14.50
40199;BMP280;25906;43.536;26.068;2022-09-03T04:21:57;98544.47;;;14.49
40199;BMP280;25906;43.536;26.068;2022-09-03T04:24:43;98537.34;;;14.44
40199;BMP280;25906;43.536;26.068;2022-09-03T04:27:28;98543.41;;;14.42
40199;BMP280;25906;43.536;26.068;2022-09-03T04:30:14;98545.50;;;14.55
40199;BMP280;25906;43.536;26.068;2022-09-03T04:32:59;98556.59;;;14.59
40199;BMP280;25906;43.536;26.068;2022-09-03T04:35:45;98559.25;;;14.46
40199;BMP280;25906;43.536;26.068;2022-09-03T04:38:32;98552.84;;;14.53
40199;BMP280;25906;43.536;26.068;2022-09-03T04:41:20;98560.41;;;14.54
40199;BMP280;25906;43.536;26.068;2022-09-03T04:44:05;98562.44;;;14.54
40199;BMP280;25906;43.536;26.068;2022-09-03T04:46:51;98565.75;;;14.52
40199;BMP280;25906;43.536;26.068;2022-09-03T04:49:37;98564.91;;;14.50
40199;BMP280;25906;43.536;26.068;2022-09-03T04:52:24;98576.84;;;14.43
40199;BMP280;25906;43.536;26.068;2022-09-03T04:55:09;98573.94;;;14.52
40199;BMP280;25906;43.536;26.068;2022-09-03T04:57:55;98582.09;;;14.64
40199;BMP280;25906;43.536;26.068;2022-09-03T05:00:40;98588.66;;;14.72
40199;BMP280;25906;43.536;26.068;2022-09-03T05:03:26;98589.56;;;14.63
40199;BMP280;25906;43.536;26.068;2022-09-03T05:06:12;98599.03;;;14.62
40199;BMP280;25906;43.536;26.068;2022-09-03T05:08:58;98594.22;;;14.74
40199;BMP280;25906;43.536;26.068;2022-09-03T05:11:44;98592.91;;;14.75
40199;BMP280;25906;43.536;26.068;2022-09-03T05:14:29;98589.28;;;14.59
40199;BMP280;25906;43.536;26.068;2022-09-03T05:17:14;98589.09;;;14.55
40199;BMP280;25906;43.536;26.068;2022-09-03T05:20:00;98588.75;;;14.49
40199;BMP280;25906;43.536;26.068;2022-09-03T05:22:45;98587.34;;;14.48
40199;BMP280;25906;43.536;26.068;2022-09-03T05:25:31;98600.97;;;14.48
40199;BMP280;25906;43.536;26.068;2022-09-03T05:28:16;98598.28;;;14.37
40199;BMP280;25906;43.536;26.068;2022-09-03T05:31:07;98596.72;;;14.34
40199;BMP280;25906;43.536;26.068;2022-09-03T05:33:55;98600.75;;;14.33
40199;BMP280;25906;43.536;26.068;2022-09-03T05:36:43;98605.03;;;14.24
40199;BMP280;25906;43.536;26.068;2022-09-03T05:39:31;98611.38;;;14.40
40199;BMP280;25906;43.536;26.068;2022-09-03T05:42:25;98611.56;;;14.56
40199;BMP280;25906;43.536;26.068;2022-09-03T05:45:11;98620.69;;;14.60
40199;BMP280;25906;43.536;26.068;2022-09-03T05:47:59;98615.72;;;14.68
40199;BMP280;25906;43.536;26.068;2022-09-03T05:50:44;98621.47;;;14.74
40199;BMP280;25906;43.536;26.068;2022-09-03T05:53:32;98620.84;;;14.87
40199;BMP280;25906;43.536;26.068;2022-09-03T05:56:19;98613.91;;;14.97
40199;BMP280;25906;43.536;26.068;2022-09-03T05:59:06;98618.59;;;14.83
40199;BMP280;25906;43.536;26.068;2022-09-03T06:01:53;98617.75;;;14.81
40199;BMP280;25906;43.536;26.068;2022-09-03T06:04:38;98617.13;;;14.94
40199;BMP280;25906;43.536;26.068;2022-09-03T06:07:24;98608.41;;;15.08
40199;BMP280;25906;43.536;26.068;2022-09-03T06:10:09;98612.47;;;15.21
40199;BMP280;25906;43.536;26.068;2022-09-03T06:12:56;98620.50;;;15.30
40199;BMP280;25906;43.536;26.068;2022-09-03T06:15:45;98626.59;;;15.55
40199;BMP280;25906;43.536;26.068;2022-09-03T06:18:31;98626.50;;;15.53
40199;BMP280;25906;43.536;26.068;2022-09-03T06:21:16;98630.38;;;15.75
40199;BMP280;25906;43.536;26.068;2022-09-03T06:24:02;98633.28;;;15.93
40199;BMP280;25906;43.536;26.068;2022-09-03T06:26:47;98637.34;;;16.05
40199;BMP280;25906;43.536;26.068;2022-09-03T06:29:33;98639.47;;;16.06
40199;BMP280;25906;43.536;26.068;2022-09-03T06:32:19;98650.72;;;16.12
40199;BMP280;25906;43.536;26.068;2022-09-03T06:35:05;98650.38;;;16.20
40199;BMP280;25906;43.536;26.068;2022-09-03T06:37:51;98653.50;;;16.28
40199;BMP280;25906;43.536;26.068;2022-09-03T06:40:37;98654.84;;;16.13
40199;BMP280;25906;43.536;26.068;2022-09-03T06:43:23;98655.16;;;16.19
40199;BMP280;25906;43.536;26.068;2022-09-03T06:46:09;98660.31;;;16.27
40199;BMP280;25906;43.536;26.068;2022-09-03T06:48:55;98660.81;;;16.10
40199;BMP280;25906;43.536;26.068;2022-09-03T06:51:40;98662.66;;;16.05
40199;BMP280;25906;43.536;26.068;2022-09-03T06:54:28;98667.09;;;16.12
40199;BMP280;25906;43.536;26.068;2022-09-03T06:57:13;98673.47;;;16.03
40199;BMP280;25906;43.536;26.068;2022-09-03T06:59:58;98663.97;;;16.04
40199;BMP280;25906;43.536;26.068;2022-09-03T07:02:44;98673.25;;;16.26
40199;BMP280;25906;43.536;26.068;2022-09-03T07:05:29;98674.75;;;16.29
40199;BMP280;25906;43.536;26.068;2022-09-03T07:08:15;98674.75;;;16.29
40199;BMP280;25906;43.536;26.068;2022-09-03T07:11:05;98689.31;;;16.47
40199;BMP280;25906;43.536;26.068;2022-09-03T07:13:54;98693.38;;;16.59
40199;BMP280;25906;43.536;26.068;2022-09-03T07:16:40;98686.28;;;16.54
40199;BMP280;25906;43.536;26.068;2022-09-03T07:19:26;98689.50;;;16.51
40199;BMP280;25906;43.536;26.068;2022-09-03T07:22:12;98684.94;;;16.55
40199;BMP280;25906;43.536;26.068;2022-09-03T07:24:57;98687.47;;;16.51
40199;BMP280;25906;43.536;26.068;2022-09-03T07:27:42;98687.69;;;16.55
40199;BMP280;25906;43.536;26.068;2022-09-03T07:30:28;98686.25;;;16.68
40199;BMP280;25906;43.536;26.068;2022-09-03T07:33:13;98693.69;;;16.38
40199;BMP280;25906;43.536;26.068;2022-09-03T07:36:04;98689.03;;;16.41
40199;BMP280;25906;43.536;26.068;2022-09-03T07:38:50;98694.28;;;16.50
40199;BMP280;25906;43.536;26.068;2022-09-03T07:41:36;98692.88;;;16.49
40199;BMP280;25906;43.536;26.068;2022-09-03T07:44:21;98682.22;;;16.42
40199;BMP280;25906;43.536;26.068;2022-09-03T07:47:08;98683.16;;;16.33
40199;BMP280;25906;43.536;26.068;2022-09-03T07:49:54;98685.59;;;16.40
40199;BMP280;25906;43.536;26.068;2022-09-03T07:52:39;98694.19;;;16.48
40199;BMP280;25906;43.536;26.068;2022-09-03T07:55:24;98692.03;;;16.60
40199;BMP280;25906;43.536;26.068;2022-09-03T07:58:09;98700.19;;;16.74
40199;BMP280;25906;43.536;26.068;2022-09-03T08:00:56;98692.63;;;16.72
40199;BMP280;25906;43.536;26.068;2022-09-03T08:03:43;98696.03;;;16.73
40199;BMP280;25906;43.536;26.068;2022-09-03T08:06:29;98701.41;;;16.71
40199;BMP280;25906;43.536;26.068;2022-09-03T08:09:14;98691.59;;;16.66
40199;BMP280;25906;43.536;26.068;2022-09-03T08:11:59;98693.47;;;16.61
40199;BMP280;25906;43.536;26.068;2022-09-03T08:14:45;98691.00;;;16.81
40199;BMP280;25906;43.536;26.068;2022-09-03T08:17:30;98691.50;;;16.77
40199;BMP280;25906;43.536;26.068;2022-09-03T08:20:15;98692.34;;;16.95
40199;BMP280;25906;43.536;26.068;2022-09-03T08:23:01;98688.13;;;16.79
40199;BMP280;25906;43.536;26.068;2022-09-03T08:25:46;98685.59;;;16.82
40199;BMP280;25906;43.536;26.068;2022-09-03T08:28:32;98692.47;;;16.41
40199;BMP280;25906;43.536;26.068;2022-09-03T08:31:19;98692.84;;;16.63
40199;BMP280;25906;43.536;26.068;2022-09-03T08:34:05;98692.47;;;16.55
40199;BMP280;25906;43.536;26.068;2022-09-03T08:36:50;98704.94;;;16.73
40199;BMP280;25906;43.536;26.068;2022-09-03T08:39:37;98693.13;;;16.69
40199;BMP280;25906;43.536;26.068;2022-09-03T08:45:30;98695.41;;;16.45
40199;BMP280;25906;43.536;26.068;2022-09-03T08:48:18;98707.13;;;16.48
40199;BMP280;25906;43.536;26.068;2022-09-03T08:51:05;98702.56;;;16.52
40199;BMP280;25906;43.536;26.068;2022-09-03T08:53:51;98702.88;;;16.58
40199;BMP280;25906;43.536;26.068;2022-09-03T08:56:40;98700.34;;;16.49
40199;BMP280;25906;43.536;26.068;2022-09-03T08:59:27;98704.31;;;16.46
40199;BMP280;25906;43.536;26.068;2022-09-03T09:05:05;98700.97;;;16.47
40199;BMP280;25906;43.536;26.068;2022-09-03T09:07:59;98710.00;;;16.37
40199;BMP280;25906;43.536;26.068;2022-09-03T09:10:47;98717.28;;;16.32
40199;BMP280;25906;43.536;26.068;2022-09-03T09:13:34;98723.84;;;16.27
40199;BMP280;25906;43.536;26.068;2022-09-03T09:22:01;98716.19;;;15.72
40199;BMP280;25906;43.536;26.068;2022-09-03T09:24:47;98719.19;;;15.65
40199;BMP280;25906;43.536;26.068;2022-09-03T09:27:34;98726.41;;;15.72
40199;BMP280;25906;43.536;26.068;2022-09-03T09:30:20;98725.09;;;15.73
40199;BMP280;25906;43.536;26.068;2022-09-03T09:33:05;98735.84;;;15.95
40199;BMP280;25906;43.536;26.068;2022-09-03T09:35:51;98733.72;;;15.94
40199;BMP280;25906;43.536;26.068;2022-09-03T09:38:37;98739.69;;;15.91
40199;BMP280;25906;43.536;26.068;2022-09-03T09:41:22;98739.38;;;15.85
40199;BMP280;25906;43.536;26.068;2022-09-03T09:44:16;98739.00;;;15.90
40199;BMP280;25906;43.536;26.068;2022-09-03T09:47:05;98738.22;;;15.63
40199;BMP280;25906;43.536;26.068;2022-09-03T09:49:51;98732.25;;;15.66
40199;BMP280;25906;43.536;26.068;2022-09-03T09:52:37;98741.25;;;15.69
40199;BMP280;25906;43.536;26.068;2022-09-03T09:55:22;98735.34;;;15.61
40199;BMP280;25906;43.536;26.068;2022-09-03T09:58:07;98741.22;;;15.55
40199;BMP280;25906;43.536;26.068;2022-09-03T10:00:59;98747.38;;;15.56
40199;BMP280;25906;43.536;26.068;2022-09-03T10:03:56;98752.84;;;15.31
40199;BMP280;25906;43.536;26.068;2022-09-03T10:06:41;98758.25;;;15.43
40199;BMP280;25906;43.536;26.068;2022-09-03T10:12:47;98759.19;;;15.47
40199;BMP280;25906;43.536;26.068;2022-09-03T10:24:03;98775.00;;;15.37
40199;BMP280;25906;43.536;26.068;2022-09-03T10:26:59;98784.28;;;15.57
40199;BMP280;25906;43.536;26.068;2022-09-03T10:29:45;98784.13;;;15.66
40199;BMP280;25906;43.536;26.068;2022-09-03T10:35:22;98786.75;;;15.40
40199;BMP280;25906;43.536;26.068;2022-09-03T10:38:25;98795.91;;;15.57
40199;BMP280;25906;43.536;26.068;2022-09-03T10:41:32;98800.31;;;15.76
40199;BMP280;25906;43.536;26.068;2022-09-03T10:44:26;98802.47;;;15.77
40199;BMP280;25906;43.536;26.068;2022-09-03T10:50:13;98797.31;;;15.58
40199;BMP280;25906;43.536;26.068;2022-09-03T10:59:02;98807.13;;;15.88
40199;BMP280;25906;43.536;26.068;2022-09-03T11:07:40;98795.25;;;16.08
40199;BMP280;25906;43.536;26.068;2022-09-03T11:10:28;98804.09;;;15.82
40199;BMP280;25906;43.536;26.068;2022-09-03T11:13:23;98804.13;;;15.95
40199;BMP280;25906;43.536;26.068;2022-09-03T11:16:25;98804.88;;;16.09
40199;BMP280;25906;43.536;26.068;2022-09-03T11:19:14;98804.75;;;16.07
40199;BMP280;25906;43.536;26.068;2022-09-03T11:22:00;98812.75;;;16.03
40199;BMP280;25906;43.536;26.068;2022-09-03T11:24:49;98814.03;;;16.27
40199;BMP280;25906;43.536;26.068;2022-09-03T11:30:22;98824.94;;;16.27
40199;BMP280;25906;43.536;26.068;2022-09-03T11:33:09;98824.53;;;16.19
40199;BMP280;25906;43.536;26.068;2022-09-03T11:35:56;98820.38;;;16.18
40199;BMP280;25906;43.536;26.068;2022-09-03T11:38:42;98817.72;;;16.20
40199;BMP280;25906;43.536;26.068;2022-09-03T11:41:31;98824.75;;;16.37
40199;BMP280;25906;43.536;26.068;2022-09-03T11:44:19;98821.72;;;16.31
40199;BMP280;25906;43.536;26.068;2022-09-03T11:47:24;98824.97;;;16.02
40199;BMP280;25906;43.536;26.068;2022-09-03T11:50:22;98836.06;;;15.93
40199;BMP280;25906;43.536;26.068;2022-09-03T11:53:54;98836.56;;;16.14
40199;BMP280;25906;43.536;26.068;2022-09-03T11:56:17;98829.09;;;16.28
40199;BMP280;25906;43.536;26.068;2022-09-03T11:59:24;98837.81;;;16.38
40199;BMP280;25906;43.536;26.068;2022-09-03T12:02:15;98839.03;;;16.35
40199;BMP280;25906;43.536;26.068;2022-09-03T12:07:54;98844.84;;;16.16
40199;BMP280;25906;43.536;26.068;2022-09-03T12:10:47;98840.81;;;16.17
40199;BMP280;25906;43.536;26.068;2022-09-03T12:19:40;98845.72;;;16.07
40199;BMP280;25906;43.536;26.068;2022-09-03T12:22:27;98843.66;;;16.19
40199;BMP280;25906;43.536;26.068;2022-09-03T12:25:15;98831.59;;;16.24
40199;BMP280;25906;43.536;26.068;2022-09-03T12:28:01;98839.91;;;16.26
40199;BMP280;25906;43.536;26.068;2022-09-03T12:30:49;98830.41;;;16.27
40199;BMP280;25906;43.536;26.068;2022-09-03T12:33:39;98827.56;;;16.25
40199;BMP280;25906;43.536;26.068;2022-09-03T12:36:34;98830.09;;;16.35
40199;BMP280;25906;43.536;26.068;2022-09-03T12:39:24;98826.75;;;16.23
40199;BMP280;25906;43.536;26.068;2022-09-03T12:42:11;98830.72;;;16.33
40199;BMP280;25906;43.536;26.068;2022-09-03T12:45:07;98821.75;;;16.06
40199;BMP280;25906;43.536;26.068;2022-09-03T12:47:56;98819.59;;;16.29
40199;BMP280;25906;43.536;26.068;2022-09-03T12:50:43;98830.91;;;16.24
40199;BMP280;25906;43.536;26.068;2022-09-03T12:53:29;98837.19;;;16.39
40199;BMP280;25906;43.536;26.068;2022-09-03T12:56:15;98829.19;;;16.30
40199;BMP280;25906;43.536;26.068;2022-09-03T12:59:11;98837.38;;;16.30
40199;BMP280;25906;43.536;26.068;2022-09-03T13:02:01;98835.56;;;16.35
40199;BMP280;25906;43.536;26.068;2022-09-03T13:04:48;98835.25;;;16.29
40199;BMP280;25906;43.536;26.068;2022-09-03T13:07:35;98838.81;;;16.31
40199;BMP280;25906;43.536;26.068;2022-09-03T13:10:29;98837.97;;;16.29
40199;BMP280;25906;43.536;26.068;2022-09-03T13:18:59;98836.41;;;16.50
40199;BMP280;25906;43.536;26.068;2022-09-03T13:30:37;98850.28;;;16.94
40199;BMP280;25906;43.536;26.068;2022-09-03T13:33:25;98841.97;;;17.06
40199;BMP280;25906;43.536;26.068;2022-09-03T13:36:20;98844.72;;;16.92
40199;BMP280;25906;43.536;26.068;2022-09-03T13:39:15;98842.28;;;16.85
40199;BMP280;25906;43.536;26.068;2022-09-03T13:42:09;98843.50;;;16.82
40199;BMP280;25906;43.536;26.068;2022-09-03T13:51:18;98852.84;;;16.64
40199;BMP280;25906;43.536;26.068;2022-09-03T13:54:20;98846.56;;;16.61
40199;BMP280;25906;43.536;26.068;2022-09-03T14:05:49;98831.38;;;16.07
40199;BMP280;25906;43.536;26.068;2022-09-03T14:24:03;98847.44;;;16.66
40199;BMP280;25906;43.536;26.068;2022-09-03T14:26:51;98848.03;;;16.51
40199;BMP280;25906;43.536;26.068;2022-09-03T14:29:36;98842.81;;;16.68
40199;BMP280;25906;43.536;26.068;2022-09-03T14:35:38;98852.19;;;16.38
40199;BMP280;25906;43.536;26.068;2022-09-03T15:01:31;98865.06;;;15.62
40199;BMP280;25906;43.536;26.068;2022-09-03T15:10:23;98867.59;;;15.58
40199;BMP280;25906;43.536;26.068;2022-09-03T15:13:15;98876.78;;;15.64
40199;BMP280;25906;43.536;26.068;2022-09-03T15:21:50;98894.25;;;15.71
40199;BMP280;25906;43.536;26.068;2022-09-03T15:24:47;98884.97;;;15.76
40199;BMP280;25906;43.536;26.068;2022-09-03T15:30:21;98888.84;;;15.84
40199;BMP280;25906;43.536;26.068;2022-09-03T15:33:18;98888.41;;;15.76
40199;BMP280;25906;43.536;26.068;2022-09-03T15:36:19;98878.75;;;15.87
40199;BMP280;25906;43.536;26.068;2022-09-03T15:39:07;98883.81;;;15.56
40199;BMP280;25906;43.536;26.068;2022-09-03T15:41:58;98897.94;;;15.16
40199;BMP280;25906;43.536;26.068;2022-09-03T15:44:46;98895.19;;;15.16
40199;BMP280;25906;43.536;26.068;2022-09-03T15:50:27;98900.97;;;15.22
40199;BMP280;25906;43.536;26.068;2022-09-03T15:53:20;98905.06;;;15.10
40199;BMP280;25906;43.536;26.068;2022-09-03T15:59:19;98894.94;;;15.24
40199;BMP280;25906;43.536;26.068;2022-09-03T16:05:18;98903.72;;;15.34
40199;BMP280;25906;43.536;26.068;2022-09-03T16:08:09;98902.53;;;15.14
40199;BMP280;25906;43.536;26.068;2022-09-03T16:11:14;98913.94;;;15.10
40199;BMP280;25906;43.536;26.068;2022-09-03T16:19:53;98910.25;;;15.17
40199;BMP280;25906;43.536;26.068;2022-09-03T16:25:47;98917.00;;;14.94
40199;BMP280;25906;43.536;26.068;2022-09-03T16:28:36;98910.38;;;14.74
40199;BMP280;25906;43.536;26.068;2022-09-03T16:37:06;98900.19;;;14.63
40199;BMP280;25906;43.536;26.068;2022-09-03T16:51:55;98913.69;;;14.61
40199;BMP280;25906;43.536;26.068;2022-09-03T16:57:58;98934.75;;;14.61
40199;BMP280;25906;43.536;26.068;2022-09-03T17:24:08;98956.81;;;14.76
40199;BMP280;25906;43.536;26.068;2022-09-03T17:30:01;98959.31;;;14.72
40199;BMP280;25906;43.536;26.068;2022-09-03T17:50:24;98991.84;;;14.91
40199;BMP280;25906;43.536;26.068;2022-09-03T17:53:33;99003.09;;;14.97
40199;BMP280;25906;43.536;26.068;2022-09-03T18:07:45;99004.00;;;14.67
40199;BMP280;25906;43.536;26.068;2022-09-03T18:23:06;99017.84;;;14.39
40199;BMP280;25906;43.536;26.068;2022-09-03T18:26:31;99014.81;;;14.44
40199;BMP280;25906;43.536;26.068;2022-09-03T18:29:53;99023.06;;;14.78
40199;BMP280;25906;43.536;26.068;2022-09-03T18:32:58;99015.50;;;14.77
40199;BMP280;25906;43.536;26.068;2022-09-03T18:36:02;99020.28;;;14.88
40199;BMP280;25906;43.536;26.068;2022-09-03T18:42:44;99026.13;;;15.28
40199;BMP280;25906;43.536;26.068;2022-09-03T18:45:57;99025.91;;;15.35
40199;BMP280;25906;43.536;26.068;2022-09-03T18:49:50;99022.56;;;15.37
40199;BMP280;25906;43.536;26.068;2022-09-03T18:55:37;99015.47;;;15.43
40199;BMP280;25906;43.536;26.068;2022-09-03T18:58:59;99025.03;;;15.55
40199;BMP280;25906;43.536;26.068;2022-09-03T19:02:09;99011.91;;;15.63
40199;BMP280;25906;43.536;26.068;2022-09-03T19:05:18;99016.00;;;15.64
40199;BMP280;25906;43.536;26.068;2022-09-03T19:08:33;99015.53;;;15.68
40199;BMP280;25906;43.536;26.068;2022-09-03T19:21:09;99033.69;;;15.75
40199;BMP280;25906;43.536;26.068;2022-09-03T19:24:19;99033.91;;;15.79
40199;BMP280;25906;43.536;26.068;2022-09-03T19:27:30;99033.69;;;15.86
40199;BMP280;25906;43.536;26.068;2022-09-03T19:30:44;99031.66;;;15.87
40199;BMP280;25906;43.536;26.068;2022-09-03T19:46:50;99029.22;;;15.56
40199;BMP280;25906;43.536;26.068;2022-09-03T19:53:06;99038.94;;;15.37
40199;BMP280;25906;43.536;26.068;2022-09-03T19:56:14;99046.19;;;15.21
40199;BMP280;25906;43.536;26.068;2022-09-03T19:59:19;99038.59;;;15.19
40199;BMP280;25906;43.536;26.068;2022-09-03T20:02:23;99047.59;;;15.33
40199;BMP280;25906;43.536;26.068;2022-09-03T20:05:27;99047.94;;;15.16
40199;BMP280;25906;43.536;26.068;2022-09-03T20:08:32;99058.06;;;15.25
40199;BMP280;25906;43.536;26.068;2022-09-03T20:11:37;99056.00;;;15.14
40199;BMP280;25906;43.536;26.068;2022-09-03T20:14:23;99054.03;;;15.26
40199;BMP280;25906;43.536;26.068;2022-09-03T20:17:30;99063.25;;;15.21
40199;BMP280;25906;43.536;26.068;2022-09-03T20:23:19;99059.94;;;15.23
40199;BMP280;25906;43.536;26.068;2022-09-03T20:26:18;99066.56;;;15.08
40199;BMP280;25906;43.536;26.068;2022-09-03T20:43:36;99086.13;;;15.16
40199;BMP280;25906;43.536;26.068;2022-09-03T20:52:21;99087.81;;;14.89
40199;BMP280;25906;43.536;26.068;2022-09-03T20:55:20;99096.56;;;14.76
40199;BMP280;25906;43.536;26.068;2022-09-03T21:01:13;99092.28;;;15.06
40199;BMP280;25906;43.536;26.068;2022-09-03T21:12:46;99076.22;;;14.89
40199;BMP280;25906;43.536;26.068;2022-09-03T21:24:10;99084.81;;;14.74
40199;BMP280;25906;43.536;26.068;2022-09-03T21:27:00;99076.06;;;14.55
40199;BMP280;25906;43.536;26.068;2022-09-03T21:29:58;99080.47;;;14.48
40199;BMP280;25906;43.536;26.068;2022-09-03T21:32:51;99085.91;;;14.48
40199;BMP280;25906;43.536;26.068;2022-09-03T21:35:50;99086.47;;;14.67
40199;BMP280;25906;43.536;26.068;2022-09-03T21:38:37;99096.81;;;14.80
40199;BMP280;25906;43.536;26.068;2022-09-03T21:41:30;99087.00;;;14.87
40199;BMP280;25906;43.536;26.068;2022-09-03T21:44:21;99094.84;;;14.92
40199;BMP280;25906;43.536;26.068;2022-09-03T21:47:08;99092.47;;;14.98
40199;BMP280;25906;43.536;26.068;2022-09-03T21:50:09;99081.53;;;14.87
40199;BMP280;25906;43.536;26.068;2022-09-03T21:53:09;99079.94;;;15.05
40199;BMP280;25906;43.536;26.068;2022-09-03T22:02:46;99080.84;;;14.86
40199;BMP280;25906;43.536;26.068;2022-09-03T22:05:01;99069.94;;;14.86
40199;BMP280;25906;43.536;26.068;2022-09-03T22:16:25;99068.34;;;14.72
40199;BMP280;25906;43.536;26.068;2022-09-03T22:19:14;99067.25;;;14.65
40199;BMP280;25906;43.536;26.068;2022-09-03T22:21:59;99067.97;;;14.66
40199;BMP280;25906;43.536;26.068;2022-09-03T22:24:47;99071.94;;;14.54
40199;BMP280;25906;43.536;26.068;2022-09-03T22:31:17;99072.22;;;14.58
40199;BMP280;25906;43.536;26.068;2022-09-03T22:33:45;99071.66;;;14.70
40199;BMP280;25906;43.536;26.068;2022-09-03T22:36:34;99068.59;;;14.76
40199;BMP280;25906;43.536;26.068;2022-09-03T22:51:06;99074.09;;;14.99
40199;BMP280;25906;43.536;26.068;2022-09-03T22:56:57;99079.94;;;15.05
40199;BMP280;25906;43.536;26.068;2022-09-03T23:03:06;99075.13;;;15.37
40199;BMP280;25906;43.536;26.068;2022-09-03T23:05:56;99077.84;;;15.49
40199;BMP280;25906;43.536;26.068;2022-09-03T23:08:46;99075.25;;;15.51